createdAt,value
2019-01-18T00:00:41.054Z,1.62
2019-01-18T00:03:11.622Z,1.52
2019-01-18T00:05:40.978Z,1.50
2019-01-18T00:08:10.430Z,1.60
2019-01-18T00:10:39.755Z,1.10
2019-01-18T00:13:09.078Z,1.60
2019-01-18T00:15:38.374Z,1.87
2019-01-18T00:18:07.725Z,1.40
2019-01-18T00:20:37.014Z,1.30
2019-01-18T00:23:06.350Z,1.37
2019-01-18T00:25:35.647Z,1.67
2019-01-18T00:28:04.973Z,1.45
2019-01-18T00:30:34.306Z,1.45
2019-01-18T00:33:03.635Z,1.82
2019-01-18T00:35:32.969Z,1.12
2019-01-18T00:38:02.290Z,1.32
2019-01-18T00:40:31.615Z,1.98
2019-01-18T00:43:00.923Z,1.40
2019-01-18T00:45:30.251Z,1.60
2019-01-18T00:47:59.657Z,1.22
2019-01-18T00:50:28.962Z,1.98
2019-01-18T00:52:58.378Z,1.32
2019-01-18T00:55:27.827Z,1.07
2019-01-18T00:57:57.178Z,1.35
2019-01-18T01:00:28.542Z,1.27
2019-01-18T01:02:57.857Z,1.17
2019-01-18T01:05:27.449Z,1.40
2019-01-18T01:07:56.740Z,1.47
2019-01-18T01:10:26.146Z,1.20
2019-01-18T01:12:55.459Z,1.17
2019-01-18T01:15:24.934Z,1.30
2019-01-18T01:17:54.231Z,0.82
2019-01-18T01:20:23.559Z,1.40
2019-01-18T01:22:52.882Z,1.57
2019-01-18T01:25:22.249Z,0.93
2019-01-18T01:27:51.574Z,1.20
2019-01-18T01:30:23.493Z,1.55
2019-01-18T01:32:52.882Z,1.27
2019-01-18T01:35:22.281Z,1.47
2019-01-18T01:37:51.581Z,1.45
2019-01-18T01:40:26.089Z,1.60
2019-01-18T01:42:55.428Z,1.10
2019-01-18T01:45:24.777Z,1.10
2019-01-18T01:47:54.174Z,1.40
2019-01-18T01:50:25.125Z,1.27
2019-01-18T01:52:54.653Z,1.35
2019-01-18T01:55:23.960Z,1.10
2019-01-18T01:57:54.922Z,1.47
2019-01-18T02:00:25.994Z,1.77
2019-01-18T02:02:55.561Z,1.10
2019-01-18T02:05:24.997Z,1.10
2019-01-18T02:07:54.329Z,1.20
2019-01-18T02:10:23.631Z,1.30
2019-01-18T02:12:53.045Z,1.62
2019-01-18T02:15:24.475Z,1.50
2019-01-18T02:17:53.882Z,1.40
2019-01-18T02:20:24.414Z,1.70
2019-01-18T02:22:53.726Z,1.20
2019-01-18T02:25:23.074Z,1.35
2019-01-18T02:27:52.344Z,1.20
2019-01-18T02:30:26.776Z,1.65
2019-01-18T02:32:56.116Z,2.40
2019-01-18T02:35:25.443Z,6.22
2019-01-18T02:37:54.839Z,9.95
2019-01-18T02:40:24.215Z,6.53
2019-01-18T02:42:53.539Z,2.50
2019-01-18T02:45:23.589Z,1.30
2019-01-18T02:47:52.967Z,1.40
2019-01-18T02:50:22.276Z,1.67
2019-01-18T02:52:51.568Z,1.55
2019-01-18T02:55:28.424Z,1.27
2019-01-18T02:57:51.823Z,1.40
2019-01-18T03:00:24.269Z,1.17
2019-01-18T03:02:53.537Z,1.70
2019-01-18T03:05:25.073Z,1.70
2019-01-18T03:07:54.442Z,1.45
2019-01-18T03:10:28.288Z,1.50
2019-01-18T03:12:57.629Z,1.70
2019-01-18T03:15:27.019Z,1.45
2019-01-18T03:17:56.341Z,1.45
2019-01-18T03:20:25.674Z,1.50
2019-01-18T03:22:54.971Z,1.92
2019-01-18T03:25:26.032Z,1.50
2019-01-18T03:27:56.287Z,1.10
2019-01-18T03:30:25.627Z,1.65
2019-01-18T03:32:55.010Z,1.57
2019-01-18T03:35:24.334Z,2.15
2019-01-18T03:37:53.683Z,1.60
2019-01-18T03:40:22.996Z,1.72
2019-01-18T03:42:52.371Z,1.40
2019-01-18T03:45:21.766Z,1.67
2019-01-18T03:47:51.100Z,1.52
2019-01-18T03:50:22.359Z,2.00
2019-01-18T03:52:51.684Z,1.50
2019-01-18T03:55:21.019Z,1.40
2019-01-18T03:57:50.318Z,1.62
2019-01-18T04:00:26.695Z,1.65
2019-01-18T04:02:56.247Z,2.08
2019-01-18T04:05:25.631Z,1.45
2019-01-18T04:07:55.018Z,1.98
2019-01-18T04:10:24.315Z,1.95
2019-01-18T04:12:53.630Z,1.55
2019-01-18T04:15:24.367Z,1.70
2019-01-18T04:17:53.658Z,2.25
2019-01-18T04:20:23.353Z,2.05
2019-01-18T04:22:52.635Z,1.92
2019-01-18T04:25:23.604Z,2.10
2019-01-18T04:27:52.911Z,2.17
2019-01-18T04:30:23.307Z,2.50
2019-01-18T04:32:52.678Z,1.90
2019-01-18T04:35:21.990Z,2.47
2019-01-18T04:37:51.368Z,2.00
2019-01-18T04:40:23.258Z,2.10
2019-01-18T04:42:52.690Z,2.47
2019-01-18T04:45:22.575Z,2.30
2019-01-18T04:47:51.859Z,2.27
2019-01-18T04:50:26.166Z,3.75
2019-01-18T04:52:55.559Z,2.83
2019-01-18T04:55:24.884Z,2.42
2019-01-18T04:57:55.818Z,2.55
2019-01-18T05:00:27.831Z,2.83
2019-01-18T05:02:57.179Z,2.10
2019-01-18T05:05:27.621Z,2.20
2019-01-18T05:07:56.940Z,2.67
2019-01-18T05:10:28.523Z,3.30
2019-01-18T05:12:58.006Z,2.45
2019-01-18T05:15:30.165Z,3.35
2019-01-18T05:17:59.509Z,3.22
2019-01-18T05:20:28.894Z,3.30
2019-01-18T05:22:58.299Z,2.35
2019-01-18T05:25:27.602Z,3.17
2019-01-18T05:27:56.934Z,2.87
2019-01-18T05:30:30.418Z,2.67
2019-01-18T05:32:59.803Z,3.27
2019-01-18T05:35:29.166Z,3.50
2019-01-18T05:37:58.543Z,3.58
2019-01-18T05:40:27.933Z,3.37
2019-01-18T05:42:57.295Z,4.22
2019-01-18T05:45:26.678Z,3.80
2019-01-18T05:47:56.055Z,3.40
2019-01-18T05:50:27.317Z,3.65
2019-01-18T05:52:56.624Z,3.17
2019-01-18T05:55:26.006Z,3.00
2019-01-18T05:57:55.345Z,2.55
2019-01-18T06:00:31.537Z,3.08
2019-01-18T06:03:00.857Z,3.15
2019-01-18T06:05:31.341Z,3.45
2019-01-18T06:08:00.703Z,3.17
2019-01-18T06:10:30.014Z,3.50
2019-01-18T06:12:59.350Z,3.12
2019-01-18T06:15:28.680Z,3.30
2019-01-18T06:17:58.315Z,3.77
2019-01-18T06:20:27.915Z,3.05
2019-01-18T06:22:57.394Z,4.28
2019-01-18T06:25:27.900Z,3.17
2019-01-18T06:27:57.446Z,4.25
2019-01-18T06:30:27.030Z,4.08
2019-01-18T06:32:56.690Z,3.80
2019-01-18T06:35:26.082Z,3.98
2019-01-18T06:37:55.589Z,4.08
2019-01-18T06:40:24.983Z,3.90
2019-01-18T06:42:54.361Z,5.10
2019-01-18T06:45:26.687Z,4.08
2019-01-18T06:47:56.026Z,4.80
2019-01-18T06:50:25.406Z,6.80
2019-01-18T06:52:54.799Z,4.92
2019-01-18T06:55:24.162Z,6.03
2019-01-18T06:57:53.505Z,5.03
2019-01-18T07:00:25.742Z,5.20
2019-01-18T07:02:55.031Z,4.62
2019-01-18T07:05:24.403Z,5.08
2019-01-18T07:07:53.746Z,6.28
2019-01-18T07:10:24.763Z,4.78
2019-01-18T07:12:54.242Z,5.08
2019-01-18T07:15:23.597Z,5.00
2019-01-18T07:17:53.984Z,4.87
2019-01-18T07:20:23.398Z,4.92
2019-01-18T07:22:52.775Z,5.28
2019-01-18T07:25:24.358Z,5.83
2019-01-18T07:27:53.729Z,4.78
2019-01-18T07:30:26.045Z,5.47
2019-01-18T07:32:55.424Z,5.20
2019-01-18T07:35:24.799Z,4.40
2019-01-18T07:37:54.124Z,4.78
2019-01-18T07:40:23.491Z,4.67
2019-01-18T07:42:52.868Z,4.67
2019-01-18T07:45:24.898Z,4.83
2019-01-18T07:47:54.251Z,5.70
2019-01-18T07:50:23.554Z,5.08
2019-01-18T07:52:52.948Z,4.97
2019-01-18T07:55:22.330Z,5.33
2019-01-18T07:57:51.694Z,5.45
2019-01-18T08:00:25.884Z,5.95
2019-01-18T08:02:56.248Z,6.75
2019-01-18T08:05:27.315Z,5.40
2019-01-18T08:07:56.812Z,6.00
2019-01-18T08:10:26.230Z,5.62
2019-01-18T08:12:55.570Z,6.45
2019-01-18T08:15:27.347Z,7.12
2019-01-18T08:17:56.997Z,6.10
2019-01-18T08:20:27.907Z,5.78
2019-01-18T08:22:58.465Z,5.60
2019-01-18T08:25:27.892Z,5.40
2019-01-18T08:27:57.362Z,5.00
2019-01-18T08:30:28.491Z,5.53
2019-01-18T08:32:57.903Z,5.10
2019-01-18T08:35:28.077Z,5.10
2019-01-18T08:37:57.494Z,4.62
2019-01-18T08:40:35.432Z,5.25
2019-01-18T08:43:06.572Z,4.83
2019-01-18T08:45:41.518Z,4.90
2019-01-18T08:48:11.936Z,4.78
2019-01-18T08:50:42.352Z,5.20
2019-01-18T08:53:12.752Z,4.37
2019-01-18T08:55:42.090Z,4.65
2019-01-18T08:58:11.450Z,4.75
2019-01-18T09:00:40.793Z,4.25
2019-01-18T09:03:10.101Z,5.00
2019-01-18T09:05:39.410Z,4.30
2019-01-18T09:08:08.735Z,3.65
2019-01-18T09:10:38.034Z,4.22
2019-01-18T09:13:07.340Z,4.47
2019-01-18T09:15:36.647Z,3.50
2019-01-18T09:18:05.964Z,2.85
2019-01-18T09:20:35.362Z,2.75
2019-01-18T09:23:04.740Z,3.10
2019-01-18T09:25:34.078Z,2.60
2019-01-18T09:28:03.390Z,2.27
2019-01-18T09:30:34.194Z,2.77
2019-01-18T09:33:05.076Z,2.45
2019-01-18T09:35:35.078Z,2.30
2019-01-18T09:38:06.423Z,2.12
2019-01-18T09:40:35.707Z,2.35
2019-01-18T09:43:05.035Z,2.30
2019-01-18T09:45:34.438Z,2.58
2019-01-18T09:48:03.919Z,2.87
2019-01-18T09:50:33.503Z,2.00
2019-01-18T09:53:05.165Z,2.20
2019-01-18T09:55:34.942Z,2.12
2019-01-18T09:58:04.412Z,1.72
2019-01-18T10:00:36.467Z,2.33
2019-01-18T10:03:05.837Z,2.10
2019-01-18T10:05:35.301Z,2.02
2019-01-18T10:08:04.764Z,2.60
2019-01-18T10:10:34.147Z,2.20
2019-01-18T10:13:03.641Z,2.40
2019-01-18T10:15:35.755Z,2.35
2019-01-18T10:18:05.835Z,2.37
2019-01-18T10:20:35.142Z,2.37
2019-01-18T10:23:04.696Z,2.17
2019-01-18T10:25:34.154Z,2.92
2019-01-18T10:28:04.662Z,3.00
2019-01-18T10:30:33.997Z,2.80
2019-01-18T10:33:03.312Z,3.00
2019-01-18T10:35:32.615Z,3.92
2019-01-18T10:38:01.934Z,5.08
2019-01-18T10:40:31.261Z,5.40
2019-01-18T10:43:00.572Z,2.10
2019-01-18T10:45:29.875Z,1.80
2019-01-18T10:48:00.084Z,1.67
2019-01-18T10:50:31.813Z,1.50
2019-01-18T10:53:01.286Z,2.10
2019-01-18T10:55:30.694Z,1.70
2019-01-18T10:58:00.008Z,1.52
2019-01-18T11:00:31.331Z,2.12
2019-01-18T11:03:00.705Z,1.82
2019-01-18T11:05:30.196Z,1.90
2019-01-18T11:07:59.571Z,1.75
2019-01-18T11:10:28.955Z,1.60
2019-01-18T11:12:58.446Z,1.62
2019-01-18T11:15:29.059Z,1.77
2019-01-18T11:17:58.463Z,1.52
2019-01-18T11:20:36.875Z,1.20
2019-01-18T11:23:06.295Z,1.70
2019-01-18T11:25:35.669Z,1.60
2019-01-18T11:28:04.967Z,1.98
2019-01-18T11:30:34.281Z,2.10
2019-01-18T11:33:03.587Z,1.80
2019-01-18T11:35:32.876Z,1.30
2019-01-18T11:38:02.250Z,10.38
2019-01-18T11:40:31.574Z,2.52
2019-01-18T11:43:00.879Z,1.20
2019-01-18T11:45:30.193Z,2.00
2019-01-18T11:47:59.602Z,1.60
2019-01-18T11:50:29.334Z,2.22
2019-01-18T11:52:58.647Z,2.10
2019-01-18T11:55:27.965Z,1.72
2019-01-18T11:57:57.278Z,1.50
2019-01-18T12:00:29.709Z,2.40
2019-01-18T12:02:59.017Z,2.60
2019-01-18T12:05:28.346Z,2.42
2019-01-18T12:07:57.653Z,1.30
2019-01-18T12:10:29.200Z,2.02
2019-01-18T12:12:58.503Z,1.67
2019-01-18T12:15:27.826Z,1.30
2019-01-18T12:17:57.108Z,1.77
2019-01-18T12:20:31.572Z,1.45
2019-01-18T12:23:00.882Z,1.87
2019-01-18T12:25:30.219Z,1.37
2019-01-18T12:27:59.499Z,1.55
2019-01-18T12:30:33.465Z,1.12
2019-01-18T12:33:02.909Z,1.42
2019-01-18T12:35:32.254Z,1.30
2019-01-18T12:38:01.557Z,1.57
2019-01-18T12:40:30.875Z,1.12
2019-01-18T12:43:00.251Z,1.22
2019-01-18T12:45:29.624Z,1.22
2019-01-18T12:47:58.970Z,1.52
2019-01-18T12:50:33.403Z,1.20
2019-01-18T12:53:02.781Z,1.20
2019-01-18T12:55:32.074Z,1.12
2019-01-18T12:58:01.415Z,1.77
2019-01-18T13:00:30.710Z,1.50
2019-01-18T13:03:01.121Z,1.45
2019-01-18T13:05:33.819Z,1.95
2019-01-18T13:08:03.231Z,1.30
2019-01-18T13:10:32.613Z,1.90
2019-01-18T13:13:01.956Z,1.37
2019-01-18T13:15:43.568Z,2.05
2019-01-18T13:18:12.855Z,1.32
2019-01-18T13:20:42.195Z,1.62
2019-01-18T13:23:11.475Z,1.37
2019-01-18T13:25:40.818Z,1.55
2019-01-18T13:28:10.193Z,1.40
2019-01-18T13:30:41.329Z,1.42
2019-01-18T13:33:10.749Z,1.32
2019-01-18T13:35:40.025Z,1.30
2019-01-18T13:38:09.327Z,1.35
2019-01-18T13:40:38.654Z,1.30
2019-01-18T13:43:08.016Z,1.25
2019-01-18T13:45:37.455Z,1.25
2019-01-18T13:48:06.957Z,1.85
2019-01-18T13:50:36.256Z,1.98
2019-01-18T13:53:05.662Z,1.32
2019-01-18T13:55:35.067Z,1.70
2019-01-18T13:58:04.471Z,1.50
2019-01-18T14:00:33.764Z,1.05
2019-01-18T14:03:03.271Z,1.40
2019-01-18T14:05:32.641Z,1.22
2019-01-18T14:08:02.079Z,1.47
2019-01-18T14:10:32.801Z,1.15
2019-01-18T14:13:02.270Z,1.47
2019-01-18T14:15:31.575Z,1.57
2019-01-18T14:18:00.946Z,1.40
2019-01-18T14:20:30.373Z,1.52
2019-01-18T14:22:59.787Z,1.57
2019-01-18T14:25:29.243Z,1.85
2019-01-18T14:27:58.690Z,1.65
2019-01-18T14:30:28.759Z,1.60
2019-01-18T14:32:58.290Z,1.57
2019-01-18T14:35:28.129Z,2.00
2019-01-18T14:37:57.581Z,1.40
2019-01-18T14:40:26.961Z,1.40
2019-01-18T14:42:56.513Z,1.60
2019-01-18T14:45:38.011Z,1.62
2019-01-18T14:48:07.551Z,2.10
2019-01-18T14:50:37.125Z,2.10
2019-01-18T14:53:06.694Z,3.10
2019-01-18T14:55:36.200Z,2.98
2019-01-18T14:58:07.635Z,2.87
2019-01-18T15:00:38.677Z,2.58
2019-01-18T15:03:08.296Z,1.52
2019-01-18T15:05:37.877Z,1.55
2019-01-18T15:08:08.516Z,2.22
2019-01-18T15:10:39.224Z,2.67
2019-01-18T15:13:11.233Z,1.80
2019-01-18T15:15:40.702Z,2.10
2019-01-18T15:18:10.161Z,1.65
2019-01-18T15:20:39.560Z,1.77
2019-01-18T15:23:09.025Z,2.50
2019-01-18T15:25:38.989Z,4.00
2019-01-18T15:28:08.389Z,10.30
2019-01-18T15:30:39.254Z,11.20
2019-01-18T15:33:09.349Z,11.40
2019-01-18T15:35:39.025Z,8.85
2019-01-18T15:38:08.434Z,8.88
2019-01-18T15:40:42.610Z,6.28
2019-01-18T15:43:13.258Z,5.65
2019-01-18T15:45:42.684Z,5.25
2019-01-18T15:48:12.086Z,4.10
2019-01-18T15:50:41.497Z,5.25
2019-01-18T15:53:11.338Z,12.75
2019-01-18T15:55:40.838Z,9.00
2019-01-18T15:58:10.330Z,8.80
2019-01-18T16:00:43.682Z,7.28
2019-01-18T16:03:16.059Z,7.42
2019-01-18T16:05:45.994Z,7.50
2019-01-18T16:08:16.871Z,45.48
2019-01-18T16:10:46.355Z,27.77
2019-01-18T16:13:15.722Z,14.10
2019-01-18T16:15:50.994Z,8.18
2019-01-18T16:18:23.361Z,7.03
2019-01-18T16:20:52.823Z,6.97
2019-01-18T16:23:22.242Z,6.53
2019-01-18T16:25:51.530Z,9.38
2019-01-18T16:28:20.937Z,8.00
2019-01-18T16:30:50.283Z,7.35
2019-01-18T16:33:23.571Z,8.75
2019-01-18T16:35:52.216Z,9.13
2019-01-18T16:38:21.576Z,9.25
2019-01-18T16:40:50.931Z,11.57
2019-01-18T16:43:23.482Z,18.23
2019-01-18T16:45:52.890Z,14.10
2019-01-18T16:48:22.270Z,17.98
2019-01-18T16:50:51.658Z,8.03
2019-01-18T16:53:20.998Z,8.78
2019-01-18T16:55:50.451Z,8.95
2019-01-18T16:58:22.195Z,8.40
2019-01-18T17:00:56.097Z,10.93
2019-01-18T17:03:30.336Z,9.70
2019-01-18T17:05:56.934Z,10.95
2019-01-18T17:08:26.216Z,14.43
2019-01-18T17:10:55.758Z,12.28
2019-01-18T17:13:25.393Z,18.52
2019-01-18T17:15:54.703Z,19.37
2019-01-18T17:18:24.814Z,13.22
2019-01-18T17:20:54.111Z,16.95
2019-01-18T17:23:23.453Z,27.32
2019-01-18T17:25:52.748Z,24.43
2019-01-18T17:28:22.090Z,12.13
2019-01-18T17:30:51.888Z,13.22
2019-01-18T17:33:22.800Z,10.35
2019-01-18T17:35:55.342Z,8.80
2019-01-18T17:38:33.833Z,7.90
2019-01-18T17:41:09.279Z,9.20
2019-01-18T17:43:59.834Z,8.50
2019-01-18T17:47:02.955Z,8.93
2019-01-18T17:49:44.430Z,9.40
2019-01-18T17:52:22.692Z,10.18
2019-01-18T17:55:01.115Z,10.00
2019-01-18T17:57:36.731Z,9.63
2019-01-18T18:00:27.372Z,9.58
2019-01-18T18:03:21.096Z,8.50
2019-01-18T18:06:02.555Z,9.35
2019-01-18T18:08:37.990Z,10.13
2019-01-18T18:11:13.480Z,10.20
2019-01-18T18:14:05.579Z,10.53
2019-01-18T18:17:01.191Z,10.10
2019-01-18T18:19:55.292Z,10.25
2019-01-18T18:22:49.111Z,9.63
2019-01-18T18:25:36.115Z,9.78
2019-01-18T18:28:28.184Z,10.53
2019-01-18T18:31:06.585Z,9.20
2019-01-18T18:33:56.003Z,9.70
2019-01-18T18:36:40.496Z,9.53
2019-01-18T18:39:25.034Z,19.57
2019-01-18T18:42:06.458Z,15.35
2019-01-18T18:44:47.883Z,19.07
2019-01-18T18:47:23.228Z,19.17
2019-01-18T18:49:55.785Z,16.23
2019-01-18T18:52:46.475Z,17.20
2019-01-18T18:55:21.947Z,16.62
2019-01-18T18:58:00.508Z,14.35
2019-01-18T19:00:42.240Z,14.98
2019-01-18T19:03:26.762Z,13.25
2019-01-18T19:06:08.190Z,12.80
2019-01-18T19:08:49.970Z,11.88
2019-01-18T19:11:37.626Z,9.60
2019-01-18T19:14:34.586Z,7.47
2019-01-18T19:17:16.175Z,10.35
2019-01-18T19:20:05.604Z,12.78
2019-01-18T19:22:54.766Z,14.00
2019-01-18T19:25:39.779Z,13.05
2019-01-18T19:28:24.675Z,16.80
2019-01-18T19:31:20.136Z,16.77
2019-01-18T19:33:55.648Z,12.60
2019-01-18T19:36:44.505Z,11.73
2019-01-18T19:39:23.392Z,13.08
2019-01-18T19:42:08.107Z,13.85
2019-01-18T19:44:55.542Z,12.82
2019-01-18T19:47:37.187Z,13.13
2019-01-18T19:50:26.698Z,12.65
2019-01-18T19:53:02.345Z,13.45
2019-01-18T19:55:43.805Z,12.28
2019-01-18T19:58:34.854Z,10.25
2019-01-18T20:01:25.350Z,12.13
2019-01-18T20:04:19.496Z,14.58
2019-01-18T20:07:04.215Z,12.73
2019-01-18T20:09:45.888Z,12.30
2019-01-18T20:12:39.928Z,13.43
2019-01-18T20:15:18.725Z,10.98
2019-01-18T20:18:15.508Z,11.12
2019-01-18T20:20:59.504Z,10.63
2019-01-18T20:23:32.098Z,11.43
2019-01-18T20:26:10.275Z,10.15
2019-01-18T20:28:42.852Z,10.53
2019-01-18T20:31:21.771Z,11.95
2019-01-18T20:34:00.065Z,10.40
2019-01-18T20:36:32.703Z,10.43
2019-01-18T20:39:17.641Z,11.35
2019-01-18T20:41:53.279Z,13.08
2019-01-18T20:44:31.931Z,11.05
2019-01-18T20:47:13.396Z,11.18
2019-01-18T20:49:51.957Z,12.20
2019-01-18T20:52:33.608Z,11.85
2019-01-18T20:55:24.227Z,11.03
2019-01-18T20:58:03.664Z,10.75
2019-01-18T21:00:56.392Z,12.80
2019-01-18T21:03:57.826Z,9.98
2019-01-18T21:06:54.607Z,11.03
2019-01-18T21:09:27.187Z,11.50
2019-01-18T21:12:02.790Z,10.75
2019-01-18T21:14:38.424Z,13.50
2019-01-18T21:17:22.840Z,13.22
2019-01-18T21:20:13.372Z,11.60
2019-01-18T21:23:00.760Z,11.80
2019-01-18T21:25:51.282Z,10.23
2019-01-18T21:28:44.915Z,11.48
2019-01-18T21:31:35.362Z,10.43
2019-01-18T21:34:32.512Z,12.30
2019-01-18T21:37:02.874Z,10.32
2019-01-18T21:39:38.170Z,8.70
2019-01-18T21:42:13.689Z,10.68
2019-01-18T21:45:04.631Z,10.00
2019-01-18T21:47:40.368Z,9.28
2019-01-18T21:50:15.639Z,8.23
2019-01-18T21:53:03.206Z,8.63
2019-01-18T21:55:57.923Z,9.23
2019-01-18T21:58:39.654Z,9.18
2019-01-18T22:01:30.298Z,11.43
2019-01-18T22:04:08.702Z,10.80
2019-01-18T22:06:53.406Z,11.70
2019-01-18T22:09:29.132Z,8.78
2019-01-18T22:12:10.026Z,7.72
2019-01-18T22:14:54.413Z,6.92
2019-01-18T22:17:45.250Z,6.92
2019-01-18T22:20:23.792Z,7.97
2019-01-18T22:23:02.215Z,7.67
2019-01-18T22:25:52.487Z,8.68
2019-01-18T22:28:43.002Z,10.72
2019-01-18T22:31:39.802Z,11.10
2019-01-18T22:34:20.748Z,8.38
2019-01-18T22:37:05.410Z,7.37
2019-01-18T22:39:47.140Z,9.30
2019-01-18T22:42:19.821Z,11.05
2019-01-18T22:45:13.124Z,9.40
2019-01-18T22:48:02.420Z,10.23
2019-01-18T22:50:57.906Z,10.30
2019-01-18T22:53:45.539Z,10.18
2019-01-18T22:56:43.741Z,9.30
2019-01-18T22:59:38.830Z,9.45
2019-01-18T23:02:20.280Z,7.55
2019-01-18T23:04:55.687Z,6.90
2019-01-18T23:07:33.049Z,8.45
2019-01-18T23:10:23.886Z,8.28
2019-01-18T23:13:02.245Z,8.23
2019-01-18T23:15:37.708Z,7.15
2019-01-18T23:18:19.156Z,6.25
2019-01-18T23:21:07.035Z,5.62
2019-01-18T23:23:50.980Z,7.55
2019-01-18T23:26:44.887Z,6.47
2019-01-18T23:29:22.395Z,7.53
2019-01-18T23:32:14.687Z,6.97
2019-01-18T23:34:49.862Z,6.37
2019-01-18T23:37:34.349Z,6.58
2019-01-18T23:40:23.596Z,6.80
2019-01-18T23:43:08.422Z,5.45
2019-01-18T23:45:44.083Z,4.78
2019-01-18T23:48:16.719Z,5.40
2019-01-18T23:50:52.142Z,4.90
2019-01-18T23:53:31.680Z,5.67
2019-01-18T23:56:07.954Z,5.90
2019-01-18T23:58:57.126Z,5.30
